Time;durP1;ratioP1;P1;durP2;ratioP2;P2;SDS_P1;SDS_P2;PMS_P1;PMS_P2;Temp;Humidity;BMP_temperature;BMP_pressure;BME280_temperature;BME280_humidity;BME280_pressure;Samples;Min_cycle;Max_cycle;Signal;HPM_P1;HPM_P2
2023/03/15 00:01:25;;;;;;;24.57;5.80;;;4.50;99.90;;;;;;4947361;28;20225;-78
2023/03/15 00:03:53;;;;;;;29.03;6.40;;;4.50;99.90;;;;;;4936730;28;20217;-80
2023/03/15 00:06:20;;;;;;;39.27;8.67;;;4.50;99.90;;;;;;4950640;28;20214;-78
2023/03/15 00:08:47;;;;;;;28.23;6.73;;;4.50;99.90;;;;;;4931223;29;20682;-78
2023/03/15 00:11:14;;;;;;;31.37;6.50;;;4.50;99.90;;;;;;4948740;28;20230;-78
2023/03/15 00:13:41;;;;;;;25.93;6.07;;;4.60;99.90;;;;;;4931512;29;20651;-79
2023/03/15 00:16:10;;;;;;;29.57;6.10;;;4.60;99.90;;;;;;4931501;29;20281;-79
2023/03/15 00:18:36;;;;;;;26.53;6.10;;;4.70;99.90;;;;;;4935363;28;20242;-79
2023/03/15 00:21:04;;;;;;;26.37;6.23;;;4.70;99.90;;;;;;4939036;28;20229;-80
2023/03/15 00:23:31;;;;;;;28.03;6.73;;;4.70;99.90;;;;;;4938051;28;20219;-81
2023/03/15 00:25:58;;;;;;;28.30;6.80;;;4.70;99.90;;;;;;4932072;28;20308;-79
2023/03/15 00:28:25;;;;;;;33.17;7.37;;;4.70;99.90;;;;;;4931950;29;20665;-80
2023/03/15 00:31:03;;;;;;;26.87;6.90;;;4.70;99.90;;;;;;4932255;29;20209;-79
2023/03/15 00:33:33;;;;;;;32.13;7.20;;;4.70;99.90;;;;;;4934939;29;20220;-81
2023/03/15 00:36:04;;;;;;;27.87;6.60;;;4.70;99.90;;;;;;4935886;29;20308;-80
2023/03/15 00:38:32;;;;;;;31.23;7.47;;;4.60;99.90;;;;;;4942245;29;20252;-79
2023/03/15 00:41:03;;;;;;;26.30;6.57;;;4.60;99.90;;;;;;4953608;28;20224;-79
2023/03/15 00:43:31;;;;;;;25.60;6.00;;;;;;;;;;4937143;29;20251;-79
2023/03/15 00:45:58;;;;;;;28.40;7.13;;;4.40;99.90;;;;;;4935971;29;20224;-80
2023/03/15 00:48:25;;;;;;;26.70;6.50;;;4.30;99.90;;;;;;4938115;29;20391;-79
2023/03/15 00:51:02;;;;;;;25.97;5.97;;;4.10;99.90;;;;;;4942590;28;20201;-80
2023/03/15 00:53:28;;;;;;;27.93;5.90;;;4.00;99.90;;;;;;4936058;28;20589;-80
2023/03/15 00:55:55;;;;;;;24.37;5.70;;;4.00;99.90;;;;;;4938289;29;20571;-79
2023/03/15 00:58:22;;;;;;;27.67;6.97;;;3.80;99.90;;;;;;4938757;29;20326;-80
2023/03/15 01:00:50;;;;;;;23.83;5.50;;;3.80;99.90;;;;;;4935829;29;20216;-82
2023/03/15 01:03:17;;;;;;;26.10;6.37;;;3.80;99.90;;;;;;4961186;28;20210;-80
2023/03/15 01:05:44;;;;;;;28.10;6.97;;;3.70;99.90;;;;;;4955178;28;20216;-81
2023/03/15 01:08:13;;;;;;;30.77;6.77;;;3.70;99.90;;;;;;4936787;29;20251;-79
2023/03/15 01:10:39;;;;;;;27.47;6.40;;;3.60;99.90;;;;;;4941318;28;20219;-79
2023/03/15 01:13:08;;;;;;;23.03;5.77;;;3.60;99.90;;;;;;4943054;29;20209;-77
2023/03/15 01:15:34;;;;;;;;;;;3.60;99.90;;;;;;4937357;29;20470;-81
2023/03/15 01:18:01;;;;;;;;;;;3.50;99.90;;;;;;4941568;28;19980;-81
2023/03/15 01:20:28;;;;;;;;;;;3.60;99.90;;;;;;4935799;28;20365;-81
2023/03/15 01:22:55;;;;;;;;;;;3.50;99.90;;;;;;4958907;28;19934;-81
2023/03/15 01:25:23;;;;;;;;;;;3.50;99.90;;;;;;4943186;29;19929;-79
2023/03/15 01:27:50;;;;;;;;;;;3.40;99.90;;;;;;4953279;29;20288;-79
2023/03/15 01:30:17;;;;;;;;;;;3.50;99.90;;;;;;4948319;29;19922;-80
2023/03/15 01:32:44;;;;;;;;;;;3.50;99.90;;;;;;4935553;29;19926;-79
2023/03/15 01:35:10;;;;;;;;;;;3.40;99.90;;;;;;4936370;29;19922;-80
2023/03/15 01:37:37;;;;;;;;;;;3.50;99.90;;;;;;4936665;29;20380;-81
2023/03/15 01:40:05;;;;;;;;;;;3.50;99.90;;;;;;4935980;29;19960;-80
2023/03/15 01:42:33;;;;;;;;;;;3.50;99.90;;;;;;4954204;29;19922;-80
2023/03/15 01:45:00;;;;;;;;;;;3.50;99.90;;;;;;4946148;29;19986;-80
2023/03/15 01:47:27;;;;;;;;;;;3.50;99.90;;;;;;4945082;29;20033;-80
2023/03/15 01:49:59;;;;;;;;;;;3.50;99.90;;;;;;4942043;29;19934;-80
2023/03/15 01:52:29;;;;;;;;;;;3.40;99.90;;;;;;4935006;28;20474;-80
2023/03/15 01:55:03;;;;;;;;;;;3.40;99.90;;;;;;4937544;28;19937;-80
2023/03/15 01:57:35;;;;;;;;;;;3.40;99.90;;;;;;4934242;29;19989;-78
2023/03/15 02:00:10;;;;;;;;;;;3.40;99.90;;;;;;4935268;28;20047;-79
2023/03/15 02:02:45;;;;;;;;;;;3.40;99.90;;;;;;4951410;28;19929;-78
2023/03/15 02:05:18;;;;;;;;;;;3.40;99.90;;;;;;4933937;29;19934;-78
2023/03/15 02:07:48;;;;;;;;;;;3.40;99.90;;;;;;4928446;28;20404;-79
2023/03/15 02:10:18;;;;;;;;;;;3.40;99.90;;;;;;4929506;29;20408;-78
2023/03/15 02:12:47;;;;;;;;;;;3.40;99.90;;;;;;4933085;29;20032;-80
2023/03/15 02:15:15;;;;;;;;;;;3.40;99.90;;;;;;4950852;29;19926;-78
2023/03/15 02:17:43;;;;;;;;;;;3.50;99.90;;;;;;4932763;29;19926;-79
2023/03/15 02:20:18;;;;;;;;;;;3.50;99.90;;;;;;4932533;28;20057;-81
2023/03/15 02:22:49;;;;;;;;;;;3.60;99.90;;;;;;4932748;29;19926;-79
2023/03/15 02:25:18;;;;;;;;;;;3.70;99.90;;;;;;4935814;28;19926;-79
2023/03/15 02:27:46;;;;;;;;;;;3.80;99.90;;;;;;4951760;28;19926;-79
2023/03/15 02:30:15;;;;;;;;;;;3.90;99.90;;;;;;4932894;29;19962;-78
2023/03/15 02:32:42;;;;;;;;;;;3.90;99.90;;;;;;4932267;29;19926;-79
2023/03/15 02:35:09;;;;;;;;;;;4.00;99.90;;;;;;4941884;29;19926;-79
2023/03/15 02:37:35;;;;;;;;;;;4.00;99.90;;;;;;4941394;29;19962;-80
2023/03/15 02:40:05;;;;;;;;;;;4.00;99.90;;;;;;4934518;29;20280;-80
2023/03/15 02:42:32;;;;;;;;;;;4.00;99.90;;;;;;4950757;29;19926;-79
2023/03/15 02:45:00;;;;;;;;;;;4.10;99.90;;;;;;4932486;29;19926;-78
2023/03/15 02:47:28;;;;;;;;;;;4.20;99.90;;;;;;4932083;29;19922;-78
2023/03/15 02:49:55;;;;;;;;;;;4.20;99.90;;;;;;4932761;28;19945;-79
2023/03/15 02:52:22;;;;;;;;;;;4.20;99.90;;;;;;4941628;28;19929;-80
2023/03/15 02:54:49;;;;;;;;;;;4.20;99.90;;;;;;4936126;28;19933;-78
2023/03/15 02:57:16;;;;;;;;;;;4.00;99.90;;;;;;4944106;28;20516;-78
2023/03/15 02:59:46;;;;;;;;;;;3.80;99.90;;;;;;4934863;28;19926;-79
2023/03/15 03:02:14;;;;;;;;;;;3.60;99.90;;;;;;4936437;29;19969;-80
2023/03/15 03:04:42;;;;;;;;;;;3.60;99.90;;;;;;4930917;28;20299;-80
2023/03/15 03:07:09;;;;;;;;;;;3.60;99.90;;;;;;4942368;28;19929;-80
2023/03/15 03:09:49;;;;;;;;;;;3.60;99.90;;;;;;4933244;28;20013;-80
2023/03/15 03:12:17;;;;;;;;;;;3.60;99.90;;;;;;4937974;29;19972;-80
2023/03/15 03:14:43;;;;;;;;;;;3.60;99.90;;;;;;4952079;28;20295;-79
2023/03/15 03:17:16;;;;;;;;;;;3.50;99.90;;;;;;4937951;29;19926;-79
2023/03/15 03:19:43;;;;;;;;;;;3.50;99.90;;;;;;4932682;29;20006;-80
2023/03/15 03:22:12;;;;;;;;;;;3.40;99.90;;;;;;4932484;29;20403;-80
2023/03/15 03:24:44;;;;;;;;;;;3.30;99.90;;;;;;4935347;29;19946;-80
2023/03/15 03:27:13;;;;;;;;;;;3.20;99.90;;;;;;4940003;29;19929;-79
2023/03/15 03:29:40;;;;;;;;;;;3.20;99.90;;;;;;4936388;29;20183;-80
2023/03/15 03:32:10;;;;;;;;;;;3.10;99.90;;;;;;4932778;29;20380;-79
2023/03/15 03:34:39;;;;;;;;;;;3.10;99.90;;;;;;4930474;29;19929;-80
2023/03/15 03:37:06;;;;;;;;;;;3.00;99.90;;;;;;4934908;29;20001;-79
2023/03/15 03:39:49;;;;;;;;;;;3.00;99.90;;;;;;4933245;29;19926;-80
2023/03/15 03:42:16;;;;;;;;;;;2.90;99.90;;;;;;4933340;29;19922;-79
2023/03/15 03:44:43;;;;;;;;;;;2.90;99.90;;;;;;4951268;29;20419;-80
2023/03/15 03:47:10;;;;;;;;;;;2.80;99.90;;;;;;4941363;29;19932;-80
2023/03/15 03:49:38;;;;;;;;;;;2.80;99.90;;;;;;4946963;28;19927;-79
2023/03/15 03:52:05;;;;;;;;;;;2.70;99.90;;;;;;4947550;29;19946;-80
2023/03/15 03:54:32;;;;;;;;;;;2.60;99.90;;;;;;4953107;29;19926;-80
2023/03/15 03:56:59;;;;;;;;;;;2.60;99.90;;;;;;4958037;29;19930;-80
2023/03/15 03:59:30;;;;;;;;;;;2.60;99.90;;;;;;4936125;29;19934;-80
2023/03/15 04:02:03;;;;;;;;;;;2.60;99.90;;;;;;4935371;29;20017;-80
2023/03/15 04:04:30;;;;;;;;;;;2.60;99.90;;;;;;4937882;28;19930;-81
2023/03/15 04:06:59;;;;;;;;;;;2.70;99.90;;;;;;4945990;28;20327;-80
2023/03/15 04:09:36;;;;;;;;;;;2.70;99.90;;;;;;4934360;29;20009;-81
2023/03/15 04:12:04;;;;;;;;;;;2.80;99.90;;;;;;4935959;29;19930;-80
2023/03/15 04:14:30;;;;;;;;;;;2.80;99.90;;;;;;4951198;29;20022;-78
2023/03/15 04:16:57;;;;;;;;;;;2.80;99.90;;;;;;4944302;29;20499;-80
2023/03/15 04:19:24;;;;;;;;;;;2.90;99.90;;;;;;4937775;29;20328;-79
2023/03/15 04:21:55;;;;;;;;;;;2.90;99.90;;;;;;4943157;28;20001;-80
2023/03/15 04:24:34;;;;;;;;;;;2.80;99.90;;;;;;4949538;29;20014;-79
2023/03/15 04:27:13;;;;;;;;;;;2.80;99.90;;;;;;4933371;29;19930;-81
2023/03/15 04:29:52;;;;;;;;;;;2.70;99.90;;;;;;4945950;29;19926;-80
2023/03/15 04:32:34;;;;;;;;;;;2.70;99.90;;;;;;4936081;29;19926;-80
2023/03/15 04:35:21;;;;;;;;;;;2.70;99.90;;;;;;4938133;29;19923;-79
2023/03/15 04:38:25;;;;;;;;;;;2.60;99.90;;;;;;5418557;23;20345;-80
2023/03/15 04:41:13;;;;;;;;;;;2.60;99.90;;;;;;4941361;28;20273;-81
2023/03/15 04:44:10;;;;;;;;;;;2.60;99.90;;;;;;4926921;29;19933;-79
2023/03/15 04:47:03;;;;;;;;;;;2.60;99.90;;;;;;4936039;29;19969;-80
2023/03/15 04:49:51;;;;;;;;;;;2.60;99.90;;;;;;4935401;29;20009;-80
2023/03/15 04:52:29;;;;;;;;;;;2.60;99.90;;;;;;4937213;29;19932;-80
2023/03/15 04:55:24;;;;;;;;;;;2.60;99.90;;;;;;4932879;29;19981;-78
2023/03/15 04:58:13;;;;;;;;;;;2.70;99.90;;;;;;4953371;28;20012;-78
2023/03/15 05:00:53;;;;;;;;;;;2.80;99.90;;;;;;4955508;28;19930;-79
2023/03/15 05:03:30;;;;;;;;;;;2.90;99.90;;;;;;4957349;28;19926;-79
2023/03/15 05:06:15;;;;;;;;;;;2.90;99.90;;;;;;4951673;28;20075;-78
2023/03/15 05:09:08;;;;;;;;;;;2.90;99.90;;;;;;4929466;28;20323;-78
2023/03/15 05:11:54;;;;;;;;;;;1.60;99.90;;;;;;4958173;28;20524;-78
2023/03/15 05:14:45;;;;;;;;;;;3.00;99.90;;;;;;4950684;28;19961;-78
2023/03/15 05:20:31;;;;;;;;;;;3.10;99.90;;;;;;4895744;29;19931;-78
2023/03/15 05:23:16;;;;;;;;;;;3.10;99.90;;;;;;4895911;29;19975;-77
2023/03/15 05:26:07;;;;;;;;;;;3.20;99.90;;;;;;4879297;29;19931;-78
2023/03/15 05:28:53;;;;;;;;;;;3.10;99.90;;;;;;4896503;29;20099;-78
2023/03/15 05:31:46;;;;;;;;;;;3.10;99.90;;;;;;4882434;29;19950;-78
2023/03/15 05:34:16;;;;;;;;;;;3.20;99.90;;;;;;4897603;29;19927;-78
2023/03/15 05:37:05;;;;;;;;;;;3.20;99.90;;;;;;4895964;29;20461;-78
2023/03/15 05:40:08;;;;;;;;;;;3.20;99.90;;;;;;4872110;29;19934;-78
2023/03/15 05:42:46;;;;;;;;;;;3.20;99.90;;;;;;4894533;29;19927;-79
2023/03/15 05:45:48;;;;;;;;;;;3.20;99.90;;;;;;4897732;29;20373;-78
2023/03/15 05:48:33;;;;;;;;;;;3.20;99.90;;;;;;4885579;29;19928;-78
2023/03/15 05:51:09;;;;;;;;;;;3.20;99.90;;;;;;4900505;29;19938;-79
2023/03/15 05:54:02;;;;;;;;;;;3.20;99.90;;;;;;4899194;29;20099;-78
2023/03/15 05:56:42;;;;;;;;;;;3.20;99.90;;;;;;4896441;29;19981;-78
2023/03/15 05:59:12;;;;;;;;;;;3.20;99.90;;;;;;4907097;29;19939;-78
2023/03/15 06:01:48;;;;;;;;;;;3.30;99.90;;;;;;4908892;29;20575;-78
2023/03/15 06:04:22;;;;;;;;;;;3.30;99.90;;;;;;4910766;29;19931;-78
2023/03/15 06:06:49;;;;;;;;;;;3.40;99.90;;;;;;4903076;29;19935;-79
2023/03/15 06:09:18;;;;;;;;;;;3.30;99.90;;;;;;4899698;29;20397;-78
2023/03/15 06:11:46;;;;;;;;;;;3.40;99.90;;;;;;4877825;29;20382;-78
2023/03/15 06:14:13;;;;;;;;;;;3.40;99.90;;;;;;4900054;29;20130;-78
2023/03/15 06:16:52;;;;;;;;;;;3.50;99.90;;;;;;4896357;29;19928;-78
2023/03/15 06:19:20;;;;;;;;;;;3.50;99.90;;;;;;4877820;29;20022;-78
2023/03/15 06:21:48;;;;;;;;;;;3.40;99.90;;;;;;4900483;29;20356;-78
2023/03/15 06:24:23;;;;;;;;;;;3.50;99.90;;;;;;4879093;29;20366;-78
2023/03/15 06:29:32;;;;;;;;;;;3.60;99.90;;;;;;5203748;23;19927;-78
2023/03/15 06:31:59;;;;;;;;;;;3.70;99.90;;;;;;4934265;29;20127;-78
2023/03/15 06:34:28;;;;;;;;;;;3.70;99.90;;;;;;4931655;29;19930;-79
2023/03/15 06:36:56;;;;;;;;;;;3.80;99.90;;;;;;4914028;28;19923;-78
2023/03/15 06:39:23;;;;;;;;;;;3.90;99.90;;;;;;4911758;29;19933;-78
2023/03/15 06:41:52;;;;;;;;;;;3.90;99.90;;;;;;4930213;23;19970;-75
2023/03/15 06:44:21;;;;;;;;;;;3.90;99.90;;;;;;4912715;29;19930;-73
2023/03/15 06:46:53;;;;;;;;;;;4.00;99.90;;;;;;4921956;29;19927;-74
2023/03/15 06:49:20;;;;;;;;;;;4.10;99.90;;;;;;4930169;23;20039;-77
2023/03/15 06:51:46;;;;;;;;;;;4.20;99.90;;;;;;4951587;23;20017;-75
2023/03/15 06:54:14;;;;;;;;;;;4.20;99.90;;;;;;4955557;28;20006;-75
2023/03/15 06:56:42;;;;;;;;;;;4.30;99.90;;;;;;4933043;29;19926;-75
2023/03/15 06:59:08;;;;;;;;;;;4.40;99.90;;;;;;4950322;29;20447;-74
2023/03/15 07:01:35;;;;;;;;;;;4.40;99.90;;;;;;4951457;28;19922;-74
2023/03/15 07:04:02;;;;;;;;;;;4.50;99.90;;;;;;4933083;29;19922;-75
2023/03/15 07:06:29;;;;;;;;;;;4.60;99.90;;;;;;4950058;29;19998;-75
2023/03/15 07:08:55;;;;;;;;;;;4.70;99.90;;;;;;4933505;28;19937;-75
2023/03/15 07:11:23;;;;;;;;;;;4.70;99.90;;;;;;4950341;28;20648;-75
2023/03/15 07:13:50;;;;;;;;;;;4.70;99.90;;;;;;4949941;29;20041;-74
2023/03/15 07:16:17;;;;;;;;;;;4.70;99.90;;;;;;4933559;29;20005;-75
2023/03/15 07:18:43;;;;;;;;;;;4.80;99.90;;;;;;4950189;29;19941;-75
2023/03/15 07:21:10;;;;;;;;;;;4.80;99.90;;;;;;4950414;28;19923;-74
2023/03/15 07:23:37;;;;;;;;;;;4.80;99.90;;;;;;4932735;29;19930;-74
2023/03/15 07:26:04;;;;;;;;;;;4.90;99.90;;;;;;4949898;29;20443;-74
2023/03/15 07:28:32;;;;;;;;;;;4.90;99.90;;;;;;4950108;29;19922;-75
2023/03/15 07:30:59;;;;;;;;;;;5.10;99.90;;;;;;4949238;29;20694;-75
2023/03/15 07:33:26;;;;;;;;;;;5.00;99.90;;;;;;4949735;28;19938;-74
2023/03/15 07:35:53;;;;;;;;;;;5.40;99.90;;;;;;4950605;29;19934;-75
2023/03/15 07:38:20;;;;;;;;;;;5.10;99.90;;;;;;4949607;29;19999;-75
2023/03/15 07:43:30;;;;;;;;;;;5.20;99.90;;;;;;5286366;23;19926;-75
2023/03/15 07:46:11;;;;;;;;;;;5.30;99.90;;;;;;4940671;29;19945;-75
2023/03/15 07:48:38;;;;;;;;;;;5.40;99.90;;;;;;4959642;29;20007;-74
2023/03/15 07:51:05;;;;;;;;;;;5.50;99.90;;;;;;4956185;28;19926;-74
2023/03/15 07:53:32;;;;;;;;;;;5.60;99.90;;;;;;4956275;28;19922;-74
2023/03/15 07:56:00;;;;;;;;;;;5.80;99.90;;;;;;4959603;28;19973;-76
2023/03/15 07:58:26;;;;;;;;;;;6.00;99.90;;;;;;4967236;28;19922;-77
2023/03/15 08:00:54;;;;;;;;;;;6.60;99.90;;;;;;4964889;28;20434;-76
2023/03/15 08:03:22;;;;;;;;;;;5.30;99.90;;;;;;4959503;29;19930;-77
2023/03/15 08:05:49;;;;;;;;;;;7.60;99.90;;;;;;4958496;28;19926;-76
2023/03/15 08:08:16;;;;;;;;;;;8.20;99.90;;;;;;4955032;29;20003;-75
2023/03/15 08:10:43;;;;;;;;;;;10.00;99.90;;;;;;4955540;28;19965;-75
2023/03/15 08:13:10;;;;;;;;;;;10.00;99.90;;;;;;4956139;29;19933;-76
2023/03/15 08:15:37;;;;;;;;;;;10.40;99.90;;;;;;4958037;29;19930;-76
2023/03/15 08:18:05;;;;;;;;;;;10.30;99.90;;;;;;4955623;29;19926;-76
2023/03/15 08:20:33;;;;;;;;;;;9.90;99.90;;;;;;4957727;28;20427;-76
2023/03/15 08:23:00;;;;;;;;;;;9.80;99.90;;;;;;4954860;28;20020;-75
2023/03/15 08:25:27;;;;;;;;;;;10.00;99.90;;;;;;4966081;28;19922;-76
2023/03/15 08:27:54;;;;;;;;;;;10.70;99.90;;;;;;4955219;29;19926;-76
2023/03/15 08:30:21;;;;;;;;;;;11.30;99.90;;;;;;4941450;28;19926;-76
2023/03/15 08:32:48;;;;;;;;;;;11.60;99.90;;;;;;4956896;28;20041;-76
2023/03/15 08:35:15;;;;;;;;;;;12.10;99.90;;;;;;4960480;28;19922;-76
2023/03/15 08:37:46;;;;;;;;;;;12.40;99.90;;;;;;4955893;28;19934;-76
2023/03/15 08:40:13;;;;;;;;;;;12.30;99.90;;;;;;4953414;29;19922;-76
2023/03/15 08:42:40;;;;;;;;;;;12.50;99.90;;;;;;4951650;28;20452;-76
2023/03/15 08:45:08;;;;;;;;;;;12.80;99.90;;;;;;4950588;28;20453;-76
2023/03/15 08:47:34;;;;;;;;;;;12.80;99.90;;;;;;4958412;28;20016;-76
2023/03/15 08:50:04;;;;;;;;;;;12.70;99.90;;;;;;4953799;28;20070;-76
2023/03/15 08:52:31;;;;;;;;;;;12.40;99.90;;;;;;4953131;29;20025;-76
2023/03/15 08:54:59;;;;;;;;;;;12.00;99.90;;;;;;4959559;28;20092;-76
2023/03/15 08:57:27;;;;;;;;;;;11.70;99.90;;;;;;4958753;28;20055;-77
2023/03/15 08:59:54;;;;;;;;;;;12.40;99.90;;;;;;4960292;28;19921;-74
2023/03/15 09:02:22;;;;;;;;;;;10.60;99.90;;;;;;4960749;28;20355;-74
2023/03/15 09:04:48;;;;;;;;;;;10.30;99.90;;;;;;4953476;29;19926;-74
2023/03/15 09:07:15;;;;;;;;;;;10.00;99.90;;;;;;4954425;28;20003;-76
2023/03/15 09:09:47;;;;;;;;;;;9.90;99.90;;;;;;4952578;29;20485;-76
2023/03/15 09:12:16;;;;;;;;;;;10.30;99.90;;;;;;4947129;28;20014;-76
2023/03/15 09:14:43;;;;;;;;;;;10.60;99.90;;;;;;4956920;28;20327;-76
2023/03/15 09:17:10;;;;;;;;;;;11.00;99.90;;;;;;4957095;28;19932;-76
2023/03/15 09:19:36;;;;;;;;;;;11.20;99.90;;;;;;4952393;29;19926;-76
2023/03/15 09:22:03;;;;;;;;;;;11.10;99.90;;;;;;4935855;28;20327;-75
2023/03/15 09:24:30;;;;;;;;;;;10.70;99.90;;;;;;4957509;28;19927;-75
2023/03/15 09:26:57;;;;;;;;;;;10.40;99.90;;;;;;4952527;29;20428;-74
2023/03/15 09:29:25;;;;;;;;;;;10.20;99.90;;;;;;4952545;29;19926;-74
2023/03/15 09:31:51;;;;;;;;;;;10.30;99.90;;;;;;4951848;29;19926;-73
2023/03/15 09:34:18;;;;;;;;;;;10.50;99.90;;;;;;4951852;29;19949;-74
2023/03/15 09:36:51;;;;;;;;;;;10.70;99.90;;;;;;4935385;29;19926;-74
2023/03/15 09:39:19;;;;;;;;;;;10.70;99.90;;;;;;4951525;29;20453;-74
2023/03/15 09:41:47;;;;;;;;;;;10.50;99.90;;;;;;4946095;28;20311;-74
2023/03/15 09:44:16;;;;;;;;;;;10.30;99.90;;;;;;4951774;29;20372;-74
2023/03/15 09:46:48;;;;;;;;;;;10.00;99.90;;;;;;4951889;29;20276;-74
2023/03/15 09:49:20;;;;;;;;;;;9.80;99.90;;;;;;4951154;28;20033;-74
2023/03/15 09:51:49;;;;;;;;;;;9.90;99.90;;;;;;4955733;28;19926;-74
2023/03/15 09:54:18;;;;;;;;;;;10.00;99.90;;;;;;4954936;28;19982;-73
2023/03/15 09:56:48;;;;;;;;;;;10.20;99.90;;;;;;4950304;28;19937;-74
2023/03/15 09:59:21;;;;;;;;;;;10.30;99.90;;;;;;4953652;28;19930;-74
2023/03/15 10:01:51;;;;;;;;;;;10.40;99.90;;;;;;4960016;28;19985;-74
2023/03/15 10:04:21;;;;;;;;;;;10.40;99.90;;;;;;4934555;29;19926;-74
2023/03/15 10:06:50;;;;;;;;;;;10.30;99.90;;;;;;4951646;28;19926;-74
2023/03/15 10:09:20;;;;;;;;;;;10.10;99.90;;;;;;4951767;29;20269;-74
2023/03/15 10:11:49;;;;;;;;;;;9.90;99.90;;;;;;4946134;29;20470;-74
2023/03/15 10:14:20;;;;;;;;;;;9.70;99.90;;;;;;4950203;29;19926;-74
2023/03/15 10:16:50;;;;;;;;;;;9.60;99.90;;;;;;4951751;29;19931;-74
2023/03/15 10:19:22;;;;;;;;;;;9.40;99.90;;;;;;4951032;29;19961;-74
2023/03/15 10:21:57;;;;;;;;;;;9.40;99.90;;;;;;4951638;28;19969;-74
2023/03/15 10:24:28;;;;;;;;;;;9.50;99.90;;;;;;4946607;28;19932;-74
2023/03/15 10:26:58;;;;;;;;;;;9.80;99.90;;;;;;4943238;29;19922;-74
2023/03/15 10:29:26;;;;;;;;;;;10.00;99.90;;;;;;4932501;29;19997;-74
2023/03/15 10:31:54;;;;;;;;;;;10.30;99.90;;;;;;4943936;28;20410;-74
2023/03/15 10:34:22;;;;;;;;;;;10.50;99.90;;;;;;4951814;28;20426;-74
2023/03/15 10:36:53;;;;;;;;;;;10.60;99.90;;;;;;4961916;28;19926;-74
2023/03/15 10:39:20;;;;;;;;;;;10.60;99.90;;;;;;4950496;29;19926;-74
2023/03/15 10:41:47;;;;;;;;;;;;;;;;;;5398378;23;19941;-74
2023/03/15 10:44:15;;;;;;;;;;;10.60;99.90;;;;;;4930546;29;19954;-74
2023/03/15 10:46:42;;;;;;;;;;;10.70;99.90;;;;;;4955330;28;20020;-74
2023/03/15 10:49:11;;;;;;;;;;;11.00;99.90;;;;;;4962290;28;19926;-74
2023/03/15 10:51:42;;;;;;;;;;;11.30;99.90;;;;;;4948530;28;19964;-74
2023/03/15 10:54:13;;;;;;;;;;;11.30;99.90;;;;;;4947915;29;19930;-74
2023/03/15 10:56:44;;;;;;;;;;;11.20;99.90;;;;;;4950971;28;19984;-76
2023/03/15 10:59:15;;;;;;;;;;;11.10;99.90;;;;;;4955302;28;19930;-76
2023/03/15 11:01:43;;;;;;;;;;;10.80;99.90;;;;;;4956850;28;19926;-76
2023/03/15 11:04:14;;;;;;;;;;;10.80;99.90;;;;;;4934154;29;20356;-76
2023/03/15 11:06:43;;;;;;;;;;;10.60;99.90;;;;;;4948424;29;19937;-76
2023/03/15 11:09:11;;;;;;;;;;;10.40;99.90;;;;;;4950645;29;19929;-76
2023/03/15 11:11:52;;;;;;;;;;;10.20;99.90;;;;;;4947631;29;19927;-76
2023/03/15 11:14:18;;;;;;;;;;;10.30;99.90;;;;;;4944954;29;19986;-76
2023/03/15 11:16:47;;;;;;;;;;;10.50;99.90;;;;;;4949241;29;20356;-76
2023/03/15 11:19:17;;;;;;;;;;;10.70;99.90;;;;;;4957525;28;20324;-76
2023/03/15 11:21:44;;;;;;;;;;;11.10;99.90;;;;;;4958716;29;19950;-77
2023/03/15 11:24:19;;;;;;;;;;;11.40;99.90;;;;;;4968384;29;19927;-75
2023/03/15 11:26:51;;;;;;;;;;;11.70;99.90;;;;;;4961389;29;19946;-75
2023/03/15 11:29:20;;;;;;;;;;;11.70;99.90;;;;;;4941053;29;19926;-75
2023/03/15 11:31:47;;;;;;;;;;;12.00;99.90;;;;;;4958167;28;19990;-75
2023/03/15 11:34:20;;;;;;;;;;;11.80;99.90;;;;;;4936439;29;19922;-76
2023/03/15 11:36:50;;;;;;;;;;;11.60;99.90;;;;;;4957221;29;19926;-76
2023/03/15 11:39:24;;;;;;;;;;;11.30;99.90;;;;;;4957757;28;19989;-76
2023/03/15 11:41:52;;;;;;;;;;;10.90;99.90;;;;;;4955477;28;19926;-75
2023/03/15 11:44:25;;;;;;;;;;;10.80;99.90;;;;;;4955912;29;19926;-75
2023/03/15 11:46:55;;;;;;;;;;;10.90;99.90;;;;;;4943227;28;19953;-75
2023/03/15 11:49:29;;;;;;;;;;;11.10;99.90;;;;;;4952708;28;19929;-75
2023/03/15 11:51:56;;;;;;;;;;;11.60;99.90;;;;;;4953914;28;20536;-75
2023/03/15 11:54:24;;;;;;;;;;;11.70;99.90;;;;;;4954335;28;19953;-73
2023/03/15 11:56:53;;;;;;;;;;;12.00;99.90;;;;;;4954862;29;19927;-73
2023/03/15 11:59:24;;;;;;;;;;;12.30;99.90;;;;;;4957633;28;20415;-72
2023/03/15 12:01:52;;;;;;;;;;;12.30;99.90;;;;;;4954315;28;19933;-72
2023/03/15 12:04:39;;;;;;;;;;;12.30;99.90;;;;;;4955108;29;19957;-73
2023/03/15 12:07:07;;;;;;;;;;;12.50;99.90;;;;;;4951954;29;19926;-73
2023/03/15 12:09:45;;;;;;;;;;;13.90;99.90;;;;;;4950099;29;19927;-75
2023/03/15 12:12:32;;;;;;;;;;;12.90;99.90;;;;;;4948144;28;19926;-75
2023/03/15 12:15:04;;;;;;;;;;;13.10;99.90;;;;;;4946022;28;19993;-75
2023/03/15 12:17:38;;;;;;;;;;;13.20;99.90;;;;;;4951503;28;19933;-75
2023/03/15 12:20:13;;;;;;;;;;;13.40;99.90;;;;;;4954562;29;19930;-75
2023/03/15 12:22:41;;;;;;;;;;;13.70;99.90;;;;;;4953660;28;20002;-75
2023/03/15 12:25:12;;;;;;;;;;;13.90;99.90;;;;;;4955301;28;20360;-75
2023/03/15 12:27:40;;;;;;;;;;;13.90;99.90;;;;;;4953334;28;19922;-75
2023/03/15 12:30:08;;;;;;;;;;;14.00;99.90;;;;;;4937484;29;19926;-73
2023/03/15 12:32:49;;;;;;;;;;;14.10;99.90;;;;;;4959516;28;19922;-73
2023/03/15 12:35:19;;;;;;;;;;;14.10;99.90;;;;;;4959246;28;19930;-73
2023/03/15 12:37:48;;;;;;;;;;;14.20;99.90;;;;;;4961202;28;19962;-73
2023/03/15 12:40:33;;;;;;;;;;;14.20;99.90;;;;;;4953464;29;19970;-74
2023/03/15 12:43:01;;;;;;;;;;;14.30;99.90;;;;;;4950523;28;21035;-74
2023/03/15 12:45:38;;;;;;;;;;;14.20;99.90;;;;;;4964892;28;19930;-73
2023/03/15 12:48:29;;;;;;;;;;;14.30;99.90;;;;;;4957320;29;20001;-73
2023/03/15 12:50:58;;;;;;;;;;;14.10;99.90;;;;;;4947074;28;20318;-73
2023/03/15 12:53:35;;;;;;;;;;;14.10;99.90;;;;;;4954973;29;19923;-73
2023/03/15 12:56:19;;;;;;;;;;;14.10;99.90;;;;;;4958219;28;19926;-74
2023/03/15 12:58:47;;;;;;;;;;;14.10;99.90;;;;;;4957453;28;20394;-73
2023/03/15 13:01:16;;;;;;;;;;;14.50;99.90;;;;;;4951552;28;19926;-73
2023/03/15 13:03:43;;;;;;;;;;;14.20;99.90;;;;;;4953223;28;20354;-74
2023/03/15 13:06:14;;;;;;;;;;;14.10;99.90;;;;;;4957477;28;20053;-73
2023/03/15 13:08:44;;;;;;;;;;;14.30;99.90;;;;;;4947519;28;20277;-73
2023/03/15 13:11:16;;;;;;;;;;;14.10;99.90;;;;;;4965900;28;19968;-73
2023/03/15 13:13:50;;;;;;;;;;;14.10;99.90;;;;;;4952230;28;19934;-74
2023/03/15 13:16:21;;;;;;;;;;;14.10;99.90;;;;;;4952831;29;20160;-72
2023/03/15 13:18:53;;;;;;;;;;;14.10;99.90;;;;;;4951675;29;20458;-73
2023/03/15 13:21:24;;;;;;;;;;;14.10;99.90;;;;;;4953545;29;19926;-73
2023/03/15 13:23:52;;;;;;;;;;;14.10;99.90;;;;;;4946683;28;19926;-72
2023/03/15 13:26:33;;;;;;;;;;;13.90;99.90;;;;;;4935060;29;20300;-73
2023/03/15 13:29:01;;;;;;;;;;;13.60;99.90;;;;;;4951688;29;19929;-73
2023/03/15 13:31:29;;;;;;;;;;;12.80;99.90;;;;;;4951756;28;20340;-73
2023/03/15 13:33:57;;;;;;;;;;;12.70;99.90;;;;;;4949026;28;19956;-74
2023/03/15 13:36:26;;;;;;;;;;;12.30;99.90;;;;;;4952821;28;19930;-74
2023/03/15 13:38:53;;;;;;;;;;;11.90;99.90;;;;;;4955046;28;19927;-72
2023/03/15 13:41:20;;;;;;;;;;;11.50;99.90;;;;;;4944130;28;19970;-73
2023/03/15 13:43:48;;;;;;;;;;;11.20;99.90;;;;;;4960976;28;19926;-73
2023/03/15 13:46:16;;;;;;;;;;;10.90;99.90;;;;;;4954729;28;20036;-73
2023/03/15 13:48:44;;;;;;;;;;;10.50;99.90;;;;;;4960195;28;19946;-73
2023/03/15 13:51:23;;;;;;;;;;;10.10;99.90;;;;;;4953329;28;19922;-73
2023/03/15 13:53:52;;;;;;;;;;;10.10;99.90;;;;;;4951984;29;19934;-73
2023/03/15 13:56:21;;;;;;;;;;;9.90;99.90;;;;;;4952611;29;19930;-74
2023/03/15 13:58:48;;;;;;;;;;;9.80;99.90;;;;;;4963633;28;20567;-73
2023/03/15 14:01:16;;;;;;;;;;;9.80;99.90;;;;;;4958719;28;19927;-73
2023/03/15 14:03:47;;;;;;;;;;;9.80;99.90;;;;;;4952434;29;19926;-72
2023/03/15 14:06:20;;;;;;;;;;;9.90;99.90;;;;;;4951685;29;19926;-72
2023/03/15 14:08:48;;;;;;;;;;;10.10;99.90;;;;;;4934373;29;20426;-73
2023/03/15 14:11:22;;;;;;;;;;;10.40;99.90;;;;;;4945082;28;20370;-73
2023/03/15 14:13:50;;;;;;;;;;;10.80;99.90;;;;;;4947638;28;20388;-72
2023/03/15 14:16:17;;;;;;;;;;;11.10;99.90;;;;;;4952591;28;20396;-73
2023/03/15 14:18:44;;;;;;;;;;;11.60;99.90;;;;;;4955462;28;19933;-73
2023/03/15 14:21:13;;;;;;;;;;;11.40;99.90;;;;;;4944711;28;19922;-73
2023/03/15 14:23:41;;;;;;;;;;;11.40;99.90;;;;;;4945875;28;19926;-74
2023/03/15 14:26:12;;;;;;;;;;;11.40;99.90;;;;;;4947589;28;20395;-74
2023/03/15 14:28:41;;;;;;;;;;;11.30;99.90;;;;;;4942082;28;19931;-73
2023/03/15 14:31:08;;;;;;;;;;;11.40;99.90;;;;;;4951246;28;19935;-73
2023/03/15 14:33:37;;;;;;;;;;;11.40;99.90;;;;;;4948812;28;20058;-73
2023/03/15 14:36:05;;;;;;;;;;;11.30;99.90;;;;;;4960766;28;20035;-73
2023/03/15 14:38:34;;;;;;;;;;;11.30;99.90;;;;;;4946121;28;19929;-73
2023/03/15 14:41:11;;;;;;;;;;;11.30;99.90;;;;;;4962427;28;20015;-73
2023/03/15 14:43:38;;;;;;;;;;;11.30;99.90;;;;;;4950031;28;19959;-73
2023/03/15 14:46:08;;;;;;;;;;;11.40;99.90;;;;;;4942706;28;19926;-73